Time;durP1;ratioP1;P1;durP2;ratioP2;P2;SDS_P1;SDS_P2;PMS_P1;PMS_P2;Temp;Humidity;BMP_temperature;BMP_pressure;BME280_temperature;BME280_humidity;BME280_pressure;Samples;Min_cycle;Max_cycle;Signal;HPM_P1;HPM_P2
2022/04/20 00:03:31;;;;;;;43.40;27.17;;;;;;;3.90;82.46;100254.11;2754221;84;21051;-80
2022/04/20 00:07:33;;;;;;;38.15;24.40;;;;;;;3.94;82.42;100257.81;2744836;85;21080;-79
2022/04/20 00:11:34;;;;;;;39.23;23.55;;;;;;;4.01;82.36;100258.33;2739161;86;21128;-79
2022/04/20 00:15:36;;;;;;;42.00;26.85;;;;;;;3.97;82.20;100259.44;2735735;85;21516;-79
2022/04/20 00:19:37;;;;;;;36.45;25.68;;;;;;;3.85;82.24;100253.90;2760877;83;21023;-79
2022/04/20 00:23:38;;;;;;;47.83;27.70;;;;;;;3.88;82.97;100252.03;2722486;84;21080;-80
2022/04/20 00:27:40;;;;;;;37.08;24.72;;;;;;;3.95;83.05;100250.78;2692387;87;21105;-79
2022/04/20 00:31:41;;;;;;;35.38;25.20;;;;;;;3.99;82.66;100257.57;2739668;84;21412;-80
2022/04/20 00:35:43;;;;;;;34.73;23.12;;;;;;;3.93;82.52;100252.62;2746206;85;21040;-79
2022/04/20 00:39:44;;;;;;;33.98;23.20;;;;;;;3.95;82.78;100247.67;2790566;84;21047;-79
2022/04/20 00:43:45;;;;;;;40.60;27.62;;;;;;;3.94;82.47;100252.55;2806911;83;21066;-79
2022/04/20 00:47:48;;;;;;;40.45;26.90;;;;;;;3.95;82.69;100237.63;2783487;83;21020;-80
2022/04/20 00:52:00;;;;;;;38.58;25.27;;;;;;;3.75;82.96;100240.87;2776005;84;21087;-79
2022/04/20 00:56:01;;;;;;;44.38;27.45;;;;;;;3.63;84.62;100240.21;2794495;84;21051;-79
2022/04/20 01:00:05;;;;;;;37.80;24.57;;;;;;;3.45;86.24;100234.16;2739416;85;21201;-80
2022/04/20 01:04:06;;;;;;;30.40;20.92;;;;;;;3.38;86.91;100225.74;2736344;85;21032;-80
2022/04/20 01:08:07;;;;;;;32.23;21.57;;;;;;;3.33;87.07;100223.80;2734946;86;21641;-79
2022/04/20 01:12:10;;;;;;;39.08;24.05;;;;;;;3.18;87.11;100222.38;2735511;85;21217;-79
2022/04/20 01:16:11;;;;;;;36.40;23.92;;;;;;;3.07;87.63;100221.62;2738912;85;21084;-79
2022/04/20 01:20:14;;;;;;;35.10;21.82;;;;;;;2.98;87.63;100221.62;2718238;84;21107;-79
2022/04/20 01:24:16;;;;;;;30.32;21.70;;;;;;;2.94;87.42;100216.60;2735003;84;21611;-79
2022/04/20 01:28:17;;;;;;;44.03;24.10;;;;;;;2.88;87.93;100223.49;2771090;84;21056;-78
2022/04/20 01:32:18;;;;;;;32.93;22.48;;;;;;;2.81;88.61;100221.64;2722582;85;22033;-79
2022/04/20 01:36:19;;;;;;;31.95;22.82;;;;;;;2.79;89.02;100220.87;2744168;84;21088;-79
2022/04/20 01:40:20;;;;;;;34.15;23.52;;;;;;;2.77;89.01;100225.35;2734175;85;21040;-80
2022/04/20 01:44:22;;;;;;;36.45;24.90;;;;;;;2.71;88.03;100219.94;2742612;86;21044;-79
2022/04/20 01:48:23;;;;;;;38.10;25.15;;;;;;;2.67;89.46;100231.05;2760404;85;21095;-79
2022/04/20 01:52:24;;;;;;;32.98;26.05;;;;;;;2.66;88.83;100231.98;2731164;85;21091;-79
2022/04/20 01:56:26;;;;;;;38.67;26.20;;;;;;;2.70;89.84;100229.58;2750887;85;21040;-79
2022/04/20 02:00:27;;;;;;;37.83;27.62;;;;;;;2.60;89.09;100227.04;2746056;85;21058;-79
2022/04/20 02:04:28;;;;;;;36.98;23.67;;;;;;;2.57;89.18;100217.52;2744327;85;21197;-79
2022/04/20 02:08:29;;;;;;;36.95;24.10;;;;;;;2.63;89.03;100218.14;2740440;85;21047;-80
2022/04/20 02:12:31;;;;;;;39.75;25.65;;;;;;;2.79;88.95;100212.98;2734388;85;21043;-79
2022/04/20 02:16:32;;;;;;;37.15;24.77;;;;;;;2.97;88.72;100210.73;2723336;85;21051;-79
2022/04/20 02:20:33;;;;;;;39.08;24.85;;;;;;;3.16;88.49;100213.73;2726904;86;21587;-79
2022/04/20 02:24:34;;;;;;;31.35;23.18;;;;;;;3.33;87.87;100217.22;2732434;85;21027;-79
2022/04/20 02:28:35;;;;;;;35.08;22.00;;;;;;;3.46;87.15;100212.19;2687255;85;21068;-80
2022/04/20 02:32:36;;;;;;;35.10;22.52;;;;;;;3.49;86.62;100212.85;2728879;86;21124;-80
2022/04/20 02:36:37;;;;;;;35.68;23.67;;;;;;;3.34;87.67;100214.98;2686764;87;21579;-79
2022/04/20 02:40:40;;;;;;;29.25;20.72;;;;;;;3.29;88.86;100217.88;2731244;85;21024;-79
2022/04/20 02:44:43;;;;;;;30.85;21.70;;;;;;;3.31;89.27;100212.06;2696343;86;21603;-79
2022/04/20 02:48:44;;;;;;;35.13;22.42;;;;;;;3.29;89.35;100213.93;2735586;85;21099;-79
2022/04/20 02:52:46;;;;;;;35.38;23.22;;;;;;;3.37;89.38;100210.90;2753025;84;21082;-80
2022/04/20 02:56:47;;;;;;;30.23;20.20;;;;;;;3.49;89.25;100201.50;2744754;85;21059;-80
2022/04/20 03:00:48;;;;;;;30.90;21.93;;;;;;;3.52;88.75;100202.64;2743953;85;21567;-79
2022/04/20 03:04:50;;;;;;;29.30;22.82;;;;;;;3.41;89.84;100203.22;2735189;85;21682;-80
2022/04/20 03:08:51;;;;;;;27.48;20.00;;;;;;;3.43;89.89;100209.25;2717654;85;21102;-79
2022/04/20 03:12:52;;;;;;;27.52;20.92;;;;;;;3.52;89.63;100216.63;2730532;85;21091;-80
2022/04/20 03:16:53;;;;;;;30.08;21.55;;;;;;;3.54;89.98;100216.11;2734774;84;21023;-79
2022/04/20 03:20:55;;;;;;;30.97;22.15;;;;;;;3.61;90.27;100214.45;2740851;86;21559;-79
2022/04/20 03:24:56;;;;;;;26.33;21.42;;;;;;;3.64;90.00;100212.52;2748424;85;21052;-80
2022/04/20 03:28:57;;;;;;;27.65;21.37;;;;;;;3.66;90.23;100203.21;2746397;84;21040;-79
2022/04/20 03:32:58;;;;;;;29.37;22.98;;;;;;;3.72;90.32;100202.87;2740689;85;21717;-80
2022/04/20 03:37:00;;;;;;;34.83;23.20;;;;;;;3.69;90.19;100200.41;2740612;85;21044;-79
2022/04/20 03:41:04;;;;;;;29.02;20.75;;;;;;;3.73;90.18;100201.09;2743438;85;21000;-79
2022/04/20 03:45:06;;;;;;;26.97;22.87;;;;;;;3.83;90.04;100193.93;2747455;84;21183;-79
2022/04/20 03:49:07;;;;;;;31.20;23.27;;;;;;;3.99;90.29;100195.72;2750768;84;20991;-79
2022/04/20 03:53:08;;;;;;;36.48;21.65;;;;;;;4.23;90.01;100193.95;2750517;84;21602;-80
2022/04/20 03:57:10;;;;;;;25.88;19.02;;;;;;;4.40;89.26;100193.83;2751988;84;21060;-79
2022/04/20 04:01:11;;;;;;;25.30;18.95;;;;;;;4.47;88.30;100194.33;2738728;85;21075;-79
2022/04/20 04:05:13;;;;;;;29.80;21.93;;;;;;;4.50;88.05;100199.87;2721411;85;21549;-81
2022/04/20 04:09:14;;;;;;;36.33;25.65;;;;;;;4.37;88.16;100199.28;2730314;85;21031;-81
2022/04/20 04:13:17;;;;;;;30.95;21.05;;;;;;;4.38;88.41;100199.66;2752903;84;21051;-79
2022/04/20 04:17:18;;;;;;;32.73;23.75;;;;;;;4.53;88.80;100191.33;2739730;84;21047;-80
2022/04/20 04:21:20;;;;;;;29.48;20.88;;;;;;;4.61;88.02;100190.89;2725521;86;21581;-79
2022/04/20 04:25:21;;;;;;;25.30;20.62;;;;;;;4.58;87.51;100201.61;2733231;85;21607;-80
2022/04/20 04:29:23;;;;;;;29.87;23.55;;;;;;;4.57;87.59;100196.80;2732278;86;21473;-80
2022/04/20 04:33:24;;;;;;;27.42;20.35;;;;;;;4.58;87.83;100193.70;2720667;86;21080;-79
2022/04/20 04:37:25;;;;;;;29.65;21.68;;;;;;;4.70;87.89;100195.60;2790139;83;22275;-78
2022/04/20 04:41:27;;;;;;;30.90;22.77;;;;;;;4.74;87.92;100194.13;2791786;83;21031;-89
2022/04/20 04:49:48;;;;;;;22.93;20.50;;;;;;;4.74;88.45;100205.50;2786444;82;21083;-80
2022/04/20 04:53:49;;;;;;;35.83;23.40;;;;;;;4.63;89.21;100207.94;2795163;84;21550;-80
2022/04/20 04:57:50;;;;;;;29.82;24.85;;;;;;;4.63;89.57;100216.67;2772684;84;21085;-80
2022/04/20 05:01:51;;;;;;;30.77;20.62;;;;;;;4.61;90.00;100217.23;2796087;82;21086;-80
2022/04/20 05:05:53;;;;;;;27.65;21.65;;;;;;;4.60;90.21;100214.22;2791648;83;21526;-81
2022/04/20 05:09:54;;;;;;;28.30;22.85;;;;;;;4.75;90.18;100211.64;2795064;83;21541;-80
2022/04/20 05:13:56;;;;;;;31.93;23.22;;;;;;;4.89;90.27;100207.69;2811486;84;21038;-81
2022/04/20 05:17:57;;;;;;;34.10;22.90;;;;;;;5.05;90.14;100197.56;2796223;84;21062;-80
2022/04/20 05:21:58;;;;;;;27.65;22.70;;;;;;;5.24;89.89;100193.34;2795348;82;21007;-81
2022/04/20 05:26:00;;;;;;;33.23;22.80;;;;;;;5.43;89.58;100189.09;2812815;82;21522;-81
2022/04/20 05:30:01;;;;;;;31.52;21.80;;;;;;;5.57;88.87;100185.13;2791515;84;21043;-81
2022/04/20 05:34:03;;;;;;;32.50;24.10;;;;;;;5.70;88.80;100175.13;2797768;84;21039;-81
2022/04/20 05:42:23;;;;;;;27.67;19.15;;;;;;;5.95;88.49;100181.48;2794187;82;21666;-80
2022/04/20 05:46:24;;;;;;;28.70;19.42;;;;;;;6.11;87.98;100180.91;2796951;84;21050;-80
2022/04/20 05:50:26;;;;;;;24.75;20.82;;;;;;;6.19;87.71;100176.91;2794463;84;21089;-81
2022/04/20 05:54:27;;;;;;;30.37;21.97;;;;;;;6.26;86.79;100172.90;2782083;84;21114;-81
2022/04/20 05:58:28;;;;;;;31.10;22.98;;;;;;;6.32;86.37;100174.30;2784256;82;21059;-81
2022/04/20 06:02:33;;;;;;;37.83;20.62;;;;;;;6.33;86.78;100172.89;2778536;82;21034;-81
2022/04/20 06:06:33;;;;;;;32.78;19.00;;;;;;;6.38;86.73;100165.95;2788133;84;21103;-80
2022/04/20 06:10:34;;;;;;;25.77;19.20;;;;;;;6.40;86.72;100164.92;2787312;84;21058;-80
2022/04/20 06:14:36;;;;;;;25.82;19.32;;;;;;;6.49;86.69;100158.67;2781670;84;22388;-81
2022/04/20 06:18:37;;;;;;;26.48;18.85;;;;;;;6.62;86.73;100157.36;2780653;84;21058;-81
2022/04/20 06:22:38;;;;;;;26.60;20.68;;;;;;;6.75;86.67;100156.05;2751343;83;21022;-81
2022/04/20 06:26:39;;;;;;;31.80;20.77;;;;;;;6.86;86.40;100150.86;2775414;82;21012;-81
2022/04/20 06:30:40;;;;;;;26.25;20.55;;;;;;;7.01;86.32;100151.63;2749898;85;21050;-80
2022/04/20 06:34:42;;;;;;;35.45;22.82;;;;;;;7.12;86.30;100141.63;2783560;84;21019;-80
2022/04/20 06:38:43;;;;;;;28.83;22.00;;;;;;;7.20;85.99;100135.30;2786450;84;21070;-80
2022/04/20 06:42:44;;;;;;;27.58;19.82;;;;;;;7.28;85.31;100140.92;2782759;84;22242;-81
2022/04/20 06:46:45;;;;;;;25.30;19.75;;;;;;;7.34;84.92;100137.47;2771737;84;21594;-80
2022/04/20 06:50:46;;;;;;;27.17;19.17;;;;;;;7.40;84.60;100133.05;2773692;85;21101;-80
2022/04/20 06:59:07;;;;;;;24.57;19.50;;;;;;;7.59;84.39;100122.01;2755402;84;21604;-80
2022/04/20 07:03:08;;;;;;;24.20;17.57;;;;;;;7.57;84.13;100123.92;2764559;85;21022;-80
2022/04/20 07:07:09;;;;;;;20.70;15.10;;;;;;;7.61;84.51;100127.17;2776915;83;21329;-80
2022/04/20 07:11:12;;;;;;;17.98;15.83;;;;;;;7.42;82.96;100121.41;2772712;84;21010;-81
2022/04/20 07:15:14;;;;;;;24.90;17.27;;;;;;;7.53;83.32;100119.78;2770305;84;21003;-81
2022/04/20 07:19:15;;;;;;;23.45;16.65;;;;;;;7.52;81.51;100112.80;2763019;82;21067;-81
2022/04/20 07:23:17;;;;;;;20.35;17.23;;;;;;;7.61;82.33;100109.97;2779385;84;21003;-81
2022/04/20 07:27:18;;;;;;;26.07;16.27;;;;;;;7.71;82.81;100103.89;2753937;83;21023;-81
2022/04/20 07:31:19;;;;;;;18.67;13.65;;;;;;;7.83;82.65;100114.06;2763390;83;20987;-81
2022/04/20 07:35:21;;;;;;;28.40;17.02;;;;;;;7.79;81.11;100109.13;2764188;83;21549;-83
2022/04/20 07:39:22;;;;;;;20.00;16.17;;;;;;;7.91;81.15;100102.08;2751124;85;21031;-81
2022/04/20 07:43:23;;;;;;;33.10;15.55;;;;;;;8.05;80.94;100094.42;2755174;85;21062;-80
2022/04/20 07:47:25;;;;;;;18.05;13.53;;;;;;;8.14;80.56;100095.91;2759863;83;21019;-81
2022/04/20 07:51:26;;;;;;;19.62;15.18;;;;;;;8.26;80.53;100095.47;2769311;83;21558;-79
2022/04/20 07:55:32;;;;;;;20.48;16.48;;;;;;;8.38;80.29;100089.72;2761276;82;21010;-81
2022/04/20 07:59:33;;;;;;;19.37;15.68;;;;;;;8.46;80.52;100085.66;2789145;83;21078;-81
2022/04/20 08:03:34;;;;;;;18.05;13.65;;;;;;;8.57;79.91;100081.72;2771341;83;21413;-80
2022/04/20 08:07:36;;;;;;;22.37;15.28;;;;;;;8.68;79.37;100079.09;2768972;83;21197;-81
2022/04/20 08:11:37;;;;;;;16.77;11.65;;;;;;;8.82;79.56;100065.22;2791380;84;21045;-81
2022/04/20 08:15:38;;;;;;;17.27;14.58;;;;;;;8.86;76.99;100061.39;2778531;84;22380;-80
2022/04/20 08:19:40;;;;;;;17.32;14.73;;;;;;;9.09;78.08;100062.70;2780716;84;21084;-81
2022/04/20 08:23:41;;;;;;;17.77;12.80;;;;;;;9.22;78.14;100063.39;2763076;84;21105;-79
2022/04/20 08:27:42;;;;;;;16.32;12.93;;;;;;;9.12;76.73;100065.11;2770936;83;21026;-81
2022/04/20 08:31:43;;;;;;;18.05;12.78;;;;;;;8.99;72.71;100074.03;2817603;82;21070;-81
2022/04/20 08:35:45;;;;;;;21.07;14.30;;;;;;;8.83;73.09;100078.84;2824609;82;21523;-80
2022/04/20 08:39:47;;;;;;;17.15;13.43;;;;;;;8.84;73.63;100072.11;2809058;82;21629;-78
2022/04/20 08:43:48;;;;;;;17.50;13.75;;;;;;;8.87;73.81;100075.02;2777779;84;21018;-81
2022/04/20 08:47:50;;;;;;;20.65;16.45;;;;;;;8.79;75.10;100080.91;2798390;82;21058;-81
2022/04/20 09:00:31;;;;;;;21.62;16.73;;;;;;;9.28;73.54;100066.91;2815181;82;20999;-80
2022/04/20 09:04:32;;;;;;;14.35;11.48;;;;;;;9.53;75.26;100074.22;2799692;84;21059;-81
2022/04/20 09:08:34;;;;;;;16.65;13.62;;;;;;;9.33;70.08;100071.00;2795906;83;21042;-82
2022/04/20 09:12:42;;;;;;;16.90;12.90;;;;;;;9.37;72.76;100061.81;2793649;82;21026;-80
2022/04/20 09:16:43;;;;;;;19.98;13.40;;;;;;;9.44;71.67;100069.66;2817211;84;21067;-81
2022/04/20 09:20:46;;;;;;;13.90;11.20;;;;;;;9.65;72.96;100071.55;2795289;83;21070;-79
2022/04/20 09:25:11;;;;;;;11.88;8.98;;;;;;;9.69;72.94;100071.64;2782130;82;21055;-80
2022/04/20 09:29:14;;;;;;;14.45;11.57;;;;;;;9.56;71.74;100065.16;2803531;82;21074;-81
2022/04/20 09:33:15;;;;;;;14.33;9.38;;;;;;;9.55;73.44;100065.64;2798729;82;21141;-81
2022/04/20 09:37:17;;;;;;;11.80;9.80;;;;;;;9.37;72.68;100048.54;2784797;83;21095;-80
2022/04/20 09:41:18;;;;;;;13.53;11.73;;;;;;;9.43;75.64;100056.00;2772473;82;21074;-81
2022/04/20 09:45:20;;;;;;;8.48;7.62;;;;;;;9.26;75.11;100052.92;2790997;82;21027;-79
2022/04/20 09:49:21;;;;;;;14.20;10.53;;;;;;;9.08;75.73;100041.95;2791826;82;21082;-81
2022/04/20 09:53:28;;;;;;;17.07;11.33;;;;;;;9.17;75.99;100035.56;2787552;82;21075;-80
2022/04/20 09:57:30;;;;;;;12.68;11.00;;;;;;;9.30;76.22;100037.57;2799512;83;21100;-79
2022/04/20 10:01:35;;;;;;;12.80;10.82;;;;;;;9.13;76.55;100037.11;2780791;83;21063;-81
2022/04/20 10:05:37;;;;;;;18.37;12.82;;;;;;;9.31;79.59;100027.81;2767464;84;21145;-81
2022/04/20 10:09:38;;;;;;;13.65;9.63;;;;;;;9.26;77.76;100025.52;2785247;84;21030;-81
2022/04/20 10:13:40;;;;;;;12.33;8.93;;;;;;;9.19;81.05;100025.16;2808009;82;21540;-81
2022/04/20 10:17:44;;;;;;;9.65;8.68;;;;;;;9.14;80.90;100018.06;2798515;83;21581;-82
2022/04/20 10:21:53;;;;;;;14.47;8.95;;;;;;;9.14;82.44;100016.27;2806103;82;21075;-82
2022/04/20 10:25:53;;;;;;;13.38;10.68;;;;;;;9.00;80.41;100016.02;2791744;82;21067;-82
2022/04/20 10:30:07;;;;;;;9.53;7.10;;;;;;;8.92;80.98;100010.50;2793241;82;21046;-81
2022/04/20 10:34:17;;;;;;;9.85;8.28;;;;;;;8.81;83.09;100010.02;2785385;82;21110;-82
2022/04/20 10:38:18;;;;;;;12.13;9.00;;;;;;;8.83;83.79;99997.48;2786771;84;21402;-82
2022/04/20 10:42:22;;;;;;;9.80;7.95;;;;;;;8.65;83.70;100009.07;2794283;84;21027;-82
2022/04/20 10:46:23;;;;;;;17.90;11.70;;;;;;;8.68;87.29;100002.19;2815222;83;21015;-83
2022/04/20 10:50:29;;;;;;;28.42;20.85;;;;;;;8.67;86.58;99997.00;2814535;82;21141;-82
2022/04/20 10:54:30;;;;;;;13.32;10.80;;;;;;;8.56;87.04;100000.49;2802712;84;21039;-82
2022/04/20 10:58:31;;;;;;;17.50;12.23;;;;;;;8.43;87.75;100000.08;2802293;83;21626;-82
2022/04/20 11:02:38;;;;;;;32.48;23.27;;;;;;;8.35;87.67;99999.84;2812791;83;21050;-81
2022/04/20 11:07:00;;;;;;;28.77;17.60;;;;;;;8.37;89.53;99993.94;2785472;83;21018;-82
2022/04/20 11:19:58;;;;;;;49.77;29.15;;;;;;;8.09;90.16;99992.09;2653414;88;21158;-82
2022/04/20 11:24:06;;;;;;;10.70;8.70;;;;;;;8.08;89.15;99994.38;2651567;87;22435;-82
2022/04/20 11:28:08;;;;;;;7.53;6.78;;;;;;;8.00;90.81;99986.16;2695289;85;21012;-81
2022/04/20 11:32:14;;;;;;;7.65;5.55;;;;;;;7.80;90.49;99981.89;2651216;86;21534;-82
2022/04/20 11:36:14;;;;;;;6.60;4.95;;;;;;;7.81;91.81;99985.39;2651283;86;29335;-82
2022/04/20 11:40:16;;;;;;;77.65;36.25;;;;;;;7.78;92.70;99981.16;2697117;86;21626;-83
2022/04/20 11:44:31;;;;;;;119.53;70.42;;;;;;;7.67;94.07;99976.67;2652837;88;21079;-81
2022/04/20 11:48:32;;;;;;;31.00;22.17;;;;;;;7.70;93.50;99982.23;2724937;85;21071;-83
2022/04/20 11:52:33;;;;;;;9.13;8.18;;;;;;;7.63;94.45;99986.27;2761410;84;21500;-81
2022/04/20 11:56:38;;;;;;;8.43;5.55;;;;;;;7.70;95.51;99976.44;2729277;85;21059;-82
2022/04/20 12:00:41;;;;;;;5.92;3.80;;;;;;;7.78;95.33;99973.22;2680633;86;21082;-81
2022/04/20 12:04:44;;;;;;;3.47;2.77;;;;;;;7.88;93.96;99976.52;2752212;84;21552;-80
2022/04/20 12:08:47;;;;;;;9.93;5.80;;;;;;;7.68;91.53;99965.62;2752215;85;21048;-92
2022/04/20 12:12:49;;;;;;;6.12;5.45;;;;;;;7.63;93.01;99976.55;2742045;84;21032;-81
2022/04/20 12:16:55;;;;;;;7.92;5.35;;;;;;;7.58;92.84;99974.23;2724854;84;21055;-80
2022/04/20 12:20:57;;;;;;;6.65;4.22;;;;;;;7.65;94.42;99968.47;2744765;85;21039;-81
2022/04/20 12:25:11;;;;;;;9.38;5.72;;;;;;;7.62;93.08;99959.44;2698212;85;22028;-81
2022/04/20 12:29:15;;;;;;;5.35;4.80;;;;;;;7.60;93.79;99960.03;2794353;83;21327;-81
2022/04/20 12:33:24;;;;;;;5.35;4.87;;;;;;;7.62;94.64;99958.97;2779192;83;21007;-81
2022/04/20 12:46:13;;;;;;;5.95;4.30;;;;;;;7.81;94.99;99948.33;2810773;82;21159;-81
2022/04/20 12:50:17;;;;;;;9.93;5.85;;;;;;;7.80;94.30;99951.44;2768651;83;21062;-81
2022/04/20 12:54:25;;;;;;;6.95;6.28;;;;;;;7.80;94.02;99952.77;2759930;83;21074;-81
2022/04/20 13:03:00;;;;;;;9.35;7.00;;;;;;;7.86;96.05;99965.56;2773677;84;21541;-82
2022/04/20 13:07:01;;;;;;;5.55;4.62;;;;;;;7.87;95.91;99966.38;2780824;83;21079;-82
2022/04/20 13:11:03;;;;;;;6.33;5.37;;;;;;;7.97;96.24;99957.27;2765749;83;21001;-82
2022/04/20 13:15:05;;;;;;;10.53;7.25;;;;;;;8.00;95.48;99958.34;2774745;83;21119;-89
2022/04/20 13:19:06;;;;;;;9.70;6.45;;;;;;;8.14;95.42;99948.87;2788880;84;21091;-83
2022/04/20 13:23:07;;;;;;;7.97;5.87;;;;;;;8.23;95.71;99949.96;2766715;84;21059;-84
2022/04/20 13:31:28;;;;;;;6.30;5.67;;;;;;;8.43;93.95;99952.37;2726477;84;21032;-81
2022/04/20 13:35:30;;;;;;;6.58;5.15;;;;;;;8.47;93.56;99954.80;2742089;84;21103;-78
2022/04/20 13:39:31;;;;;;;8.30;7.10;;;;;;;8.42;94.42;99955.16;2745638;83;21099;-83
2022/04/20 13:47:50;;;;;;;6.83;5.70;;;;;;;8.52;94.87;99948.18;2826691;80;21279;-80
2022/04/20 13:51:51;;;;;;;8.40;6.42;;;;;;;8.38;94.94;99959.84;2837203;80;21171;-79
2022/04/20 13:55:52;;;;;;;9.30;7.17;;;;;;;8.31;94.65;99954.67;2853186;81;21116;-81
2022/04/20 13:59:54;;;;;;;7.97;5.47;;;;;;;8.29;95.20;99952.63;2847803;80;21670;-81
2022/04/20 14:03:55;;;;;;;8.33;5.50;;;;;;;8.33;95.15;99951.41;2842116;82;21652;-81
2022/04/20 14:07:56;;;;;;;7.15;6.15;;;;;;;8.32;94.55;99951.05;2822028;82;21097;-82
2022/04/20 14:11:58;;;;;;;6.80;5.30;;;;;;;8.37;94.84;99948.05;2844524;81;21101;-83
2022/04/20 14:15:59;;;;;;;7.37;6.12;;;;;;;8.39;94.03;99948.27;2852156;82;21168;-84
2022/04/20 14:20:03;;;;;;;5.58;3.20;;;;;;;8.39;94.01;99952.25;2841414;81;21659;-83
2022/04/20 14:24:05;;;;;;;3.58;3.25;;;;;;;8.36;94.84;99962.27;2811348;80;21074;-83
2022/04/20 14:32:27;;;;;;;3.33;2.67;;;;;;;8.50;90.64;99966.52;2850523;82;21133;-83
2022/04/20 14:36:28;;;;;;;4.37;3.45;;;;;;;8.49;91.66;99964.80;2829518;80;21018;-82
2022/04/20 14:40:30;;;;;;;28.07;21.42;;;;;;;8.51;92.85;99968.20;2838060;80;20977;-83
2022/04/20 14:44:34;;;;;;;81.82;53.02;;;;;;;8.60;92.95;99967.47;2851072;82;21014;-83
2022/04/20 14:48:35;;;;;;;16.65;10.82;;;;;;;8.50;92.14;99973.14;2852674;82;21114;-83
2022/04/20 14:52:36;;;;;;;4.83;3.77;;;;;;;8.48;92.40;99965.77;2849958;82;21006;-82
2022/04/20 14:56:37;;;;;;;4.08;2.30;;;;;;;8.50;92.15;99965.19;2837143;81;21583;-83
2022/04/20 15:00:40;;;;;;;3.67;2.47;;;;;;;8.47;92.68;99964.08;2845951;82;21605;-95
2022/04/20 15:04:41;;;;;;;1.90;1.75;;;;;;;8.54;92.86;99966.63;2842245;82;21117;-82
2022/04/20 15:08:43;;;;;;;2.60;2.40;;;;;;;8.51;92.61;99953.13;2842722;82;21128;-82
2022/04/20 15:12:44;;;;;;;1.70;1.60;;;;;;;8.62;92.85;99952.28;2822350;82;21462;-81
2022/04/20 15:16:46;;;;;;;3.55;2.42;;;;;;;8.76;93.05;99939.73;2860860;82;21123;-82
2022/04/20 15:20:48;;;;;;;4.33;2.70;;;;;;;8.89;91.99;99943.57;2846792;82;21088;-83
2022/04/20 15:24:49;;;;;;;4.08;3.70;;;;;;;8.96;90.65;99940.80;2830419;82;21188;-83
2022/04/20 15:28:54;;;;;;;7.50;5.87;;;;;;;8.99;90.72;99945.36;2863842;82;22395;-83
2022/04/20 15:32:55;;;;;;;6.05;3.98;;;;;;;9.06;90.26;99944.88;2861816;82;21029;-81
2022/04/20 15:37:04;;;;;;;3.47;3.05;;;;;;;9.11;89.46;99946.67;2840905;81;21054;-82
2022/04/20 15:41:00;;;;;;;3.42;3.12;;;;;;;9.16;89.01;99948.45;2849216;82;21093;-83
2022/04/20 15:45:01;;;;;;;3.65;2.65;;;;;;;9.19;89.28;99946.05;2830725;82;21601;-83
2022/04/20 15:49:02;;;;;;;3.45;2.90;;;;;;;9.25;89.40;99942.88;2854442;82;21608;-81
2022/04/20 15:53:07;;;;;;;2.40;2.20;;;;;;;9.29;88.77;99939.86;2864556;81;21057;-83
2022/04/20 16:01:28;;;;;;;3.27;2.60;;;;;;;9.38;88.17;99938.73;2842743;82;21065;-83
2022/04/20 16:05:29;;;;;;;4.55;3.80;;;;;;;9.36;87.58;99934.89;2868280;82;21006;-81
2022/04/20 16:09:31;;;;;;;7.47;4.75;;;;;;;9.37;88.01;99935.72;2838508;81;21083;-82
2022/04/20 16:13:32;;;;;;;9.08;5.37;;;;;;;9.28;89.08;99942.63;2837788;81;21371;-83
2022/04/20 16:17:34;;;;;;;8.70;7.03;;;;;;;9.23;89.79;99942.17;2827414;82;21049;-82
2022/04/20 16:21:35;;;;;;;10.15;7.72;;;;;;;9.17;90.01;99943.51;2852922;82;21137;-83
2022/04/20 16:25:37;;;;;;;6.60;5.87;;;;;;;9.10;89.59;99935.70;2848271;82;21088;-81
2022/04/20 16:29:38;;;;;;;9.48;6.15;;;;;;;9.07;90.34;99935.95;2862777;81;21565;-82
2022/04/20 16:33:39;;;;;;;9.93;5.00;;;;;;;9.05;90.62;99936.06;2840357;81;21019;-82
2022/04/20 16:37:41;;;;;;;11.05;5.87;;;;;;;9.03;90.48;99946.44;2828885;81;21055;-81
2022/04/20 16:41:42;;;;;;;5.12;4.08;;;;;;;8.99;90.97;99942.70;2766926;84;21078;-83
2022/04/20 16:45:43;;;;;;;4.08;3.67;;;;;;;8.87;89.95;99942.39;2809593;82;21141;-83
2022/04/20 16:49:45;;;;;;;2.95;2.65;;;;;;;8.81;90.20;99942.86;2807356;83;21110;-83
2022/04/20 16:53:47;;;;;;;2.85;2.08;;;;;;;8.75;89.91;99941.56;2790412;83;21032;-82
2022/04/20 16:57:48;;;;;;;3.15;2.85;;;;;;;8.66;90.37;99936.52;2797834;83;21142;-82
2022/04/20 17:01:50;;;;;;;4.92;3.20;;;;;;;8.58;91.26;99933.61;2805605;83;21095;-83
2022/04/20 17:05:51;;;;;;;6.05;4.70;;;;;;;8.53;92.24;99930.48;2811822;83;21107;-82
2022/04/20 17:09:52;;;;;;;6.70;4.90;;;;;;;8.59;92.71;99939.27;2783143;83;21649;-82
2022/04/20 17:13:53;;;;;;;6.28;4.53;;;;;;;8.51;92.95;99935.06;2809857;83;21181;-81
2022/04/20 17:17:54;;;;;;;6.08;4.42;;;;;;;8.48;93.30;99934.78;2796886;83;21562;-81
2022/04/20 17:30:34;;;;;;;4.67;4.08;;;;;;;8.62;93.62;99928.91;2811507;82;21024;-87
2022/04/20 17:34:35;;;;;;;7.03;4.65;;;;;;;8.62;93.59;99928.91;2794562;82;21631;-82
2022/04/20 17:38:36;;;;;;;6.17;5.10;;;;;;;8.63;93.59;99932.75;2792890;82;21103;-83
2022/04/20 17:55:35;;;;;;;7.58;5.75;;;;;;;8.62;93.92;99932.39;2722740;83;21098;-83
2022/04/20 17:59:36;;;;;;;8.55;5.85;;;;;;;8.59;93.94;99931.31;2743080;85;21091;-83
2022/04/20 18:03:38;;;;;;;9.45;6.28;;;;;;;8.62;93.99;99923.11;2746061;84;21562;-81
2022/04/20 18:07:39;;;;;;;6.12;5.05;;;;;;;8.63;93.93;99927.45;2751033;85;21090;-83
2022/04/20 18:11:42;;;;;;;5.55;4.97;;;;;;;8.63;94.08;99919.99;2738709;86;21622;-82
2022/04/20 18:15:44;;;;;;;5.42;4.60;;;;;;;8.61;94.13;99932.53;2757813;85;21130;-83
2022/04/20 18:19:45;;;;;;;12.45;5.65;;;;;;;8.63;93.98;99927.45;2739808;85;21610;-82
2022/04/20 18:23:46;;;;;;;5.42;4.67;;;;;;;8.59;93.96;99926.02;2748945;85;21083;-82
2022/04/20 18:27:47;;;;;;;10.63;5.42;;;;;;;8.55;94.12;99931.20;2737042;86;21003;-82
2022/04/20 18:31:48;;;;;;;5.87;5.30;;;;;;;8.50;94.36;99935.53;2777609;84;21054;-82
2022/04/20 18:35:49;;;;;;;10.20;7.85;;;;;;;8.48;94.64;99930.80;2837186;82;21090;-83
2022/04/20 18:39:51;;;;;;;9.93;6.62;;;;;;;8.49;94.73;99927.69;2821827;83;21617;-82
2022/04/20 18:43:54;;;;;;;10.60;7.85;;;;;;;8.46;95.22;99930.59;2833973;82;21530;-82
2022/04/20 18:47:55;;;;;;;11.95;9.58;;;;;;;8.47;95.15;99937.58;2824337;83;21027;-83
2022/04/20 18:51:58;;;;;;;12.60;9.58;;;;;;;8.42;95.28;99943.23;2830924;82;21066;-82
2022/04/20 19:00:19;;;;;;;14.55;9.18;;;;;;;8.50;95.00;99942.16;2828649;83;21345;-82
2022/04/20 19:08:39;;;;;;;11.15;7.62;;;;;;;8.52;94.87;99942.05;2834206;82;21050;-82
2022/04/20 19:12:41;;;;;;;9.78;7.15;;;;;;;8.52;94.92;99936.25;2836108;82;21082;-81
2022/04/20 19:16:42;;;;;;;9.83;7.33;;;;;;;8.46;95.15;99931.91;2824474;83;21051;-83
2022/04/20 19:20:46;;;;;;;8.05;6.60;;;;;;;8.46;95.32;99938.54;2842326;81;22189;-83
2022/04/20 19:24:48;;;;;;;12.03;8.75;;;;;;;8.39;95.65;99933.70;2823101;83;21023;-82
2022/04/20 19:28:49;;;;;;;11.65;8.18;;;;;;;8.37;95.79;99930.33;2823863;83;21031;-82
2022/04/20 19:32:51;;;;;;;10.40;7.85;;;;;;;8.38;96.08;99929.36;2827587;83;21464;-82
2022/04/20 19:36:53;;;;;;;9.83;8.10;;;;;;;8.43;95.92;99923.21;2827931;83;21058;-82
2022/04/20 19:40:55;;;;;;;11.08;8.55;;;;;;;8.42;95.98;99914.90;2826292;82;21461;-82
2022/04/20 19:44:57;;;;;;;12.82;7.90;;;;;;;8.46;95.84;99910.70;2802436;83;21086;-82
2022/04/20 19:48:59;;;;;;;12.68;8.70;;;;;;;8.48;95.55;99906.12;2831130;82;21665;-82
2022/04/20 19:53:01;;;;;;;7.97;7.17;;;;;;;8.49;95.16;99898.53;2833581;83;21671;-79
2022/04/20 19:57:03;;;;;;;7.92;6.22;;;;;;;8.44;95.26;99901.03;2833194;82;21605;-81
2022/04/20 20:01:04;;;;;;;7.20;6.50;;;;;;;8.48;95.54;99897.67;2847208;82;21089;-78
2022/04/20 20:05:06;;;;;;;7.20;5.15;;;;;;;8.56;95.46;99894.45;2825167;82;21038;-81
2022/04/20 20:09:08;;;;;;;8.88;7.33;;;;;;;8.59;95.12;99890.72;2825858;82;21100;-83
2022/04/20 20:13:09;;;;;;;6.75;6.12;;;;;;;8.57;94.90;99889.03;2831121;81;21030;-88
2022/04/20 20:17:11;;;;;;;9.88;5.10;;;;;;;8.57;94.77;99883.73;2823050;82;21031;-82
2022/04/20 20:21:12;;;;;;;7.37;4.62;;;;;;;8.57;94.68;99891.69;2831228;82;21071;-82